Time;durP1;ratioP1;P1;durP2;ratioP2;P2;SDS_P1;SDS_P2;PMS_P1;PMS_P2;Temp;Humidity;BMP_temperature;BMP_pressure;BME280_temperature;BME280_humidity;BME280_pressure;Samples;Min_cycle;Max_cycle;Signal;HPM_P1;HPM_P2
2022/03/29 00:02:13;;;;;;;14.10;8.32;;;;;;;8.09;70.01;100442.69;4911544;29;20051;-72
2022/03/29 00:04:39;;;;;;;16.00;9.43;;;;;;;8.01;70.69;100437.41;4915389;29;20036;-72
2022/03/29 00:07:04;;;;;;;15.00;10.05;;;;;;;7.89;71.11;100437.41;4915308;29;20040;-71
2022/03/29 00:09:29;;;;;;;15.55;10.20;;;;;;;7.80;71.42;100438.22;4915365;29;20087;-72
2022/03/29 00:11:55;;;;;;;16.38;9.88;;;;;;;7.74;71.90;100435.56;4914889;29;20055;-72
2022/03/29 00:14:20;;;;;;;19.63;10.70;;;;;;;7.68;72.43;100430.31;4915310;29;20036;-71
2022/03/29 00:16:45;;;;;;;17.17;10.13;;;;;;;7.62;71.98;100435.53;4915284;29;20040;-72
2022/03/29 00:19:11;;;;;;;19.13;10.82;;;;;;;7.55;73.52;100436.38;4915126;29;20047;-71
2022/03/29 00:21:37;;;;;;;17.17;11.23;;;;;;;7.54;74.07;100438.09;4914995;29;20032;-71
2022/03/29 00:24:02;;;;;;;19.90;11.02;;;;;;;7.48;74.58;100430.22;4915135;29;20051;-72
2022/03/29 00:26:27;;;;;;;18.98;11.73;;;;;;;7.39;75.85;100432.81;4914981;29;20112;-72
2022/03/29 00:28:53;;;;;;;18.52;11.20;;;;;;;7.36;75.27;100427.50;4915004;29;20042;-71
2022/03/29 00:31:19;;;;;;;19.83;12.70;;;;;;;7.32;75.91;100431.00;4914925;29;20123;-71
2022/03/29 00:33:48;;;;;;;17.92;11.23;;;;;;;7.30;75.61;100425.75;4914948;29;20032;-71
2022/03/29 00:36:14;;;;;;;19.67;12.35;;;;;;;7.22;75.37;100436.19;4915006;29;20118;-71
2022/03/29 00:38:39;;;;;;;22.00;13.30;;;;;;;7.17;75.43;100424.78;4914971;29;20491;-71
2022/03/29 00:41:04;;;;;;;20.40;13.23;;;;;;;7.12;75.94;100429.13;4914605;29;20147;-71
2022/03/29 00:43:30;;;;;;;21.27;13.32;;;;;;;7.02;76.56;100428.22;4916044;29;20079;-71
2022/03/29 00:45:56;;;;;;;20.92;14.30;;;;;;;6.99;76.66;100433.41;4918912;29;20044;-71
2022/03/29 00:48:21;;;;;;;21.90;14.43;;;;;;;6.98;76.80;100436.91;4918832;29;20039;-71
2022/03/29 00:50:47;;;;;;;20.13;14.55;;;;;;;6.92;76.71;100420.28;4918800;29;20032;-71
2022/03/29 00:53:13;;;;;;;18.65;13.73;;;;;;;6.88;76.77;100424.59;4918562;29;20688;-71
2022/03/29 00:55:39;;;;;;;19.83;13.75;;;;;;;6.84;77.31;100419.31;4918652;29;20043;-71
2022/03/29 00:58:06;;;;;;;21.23;14.15;;;;;;;6.80;77.29;100416.69;4918699;29;20107;-73
2022/03/29 01:00:33;;;;;;;22.25;14.35;;;;;;;6.76;77.31;100406.16;4915255;29;20036;-71
2022/03/29 01:03:01;;;;;;;18.77;13.48;;;;;;;6.72;77.37;100407.00;4918350;29;20395;-71
2022/03/29 01:05:26;;;;;;;21.33;13.10;;;;;;;6.67;77.43;100403.47;4918552;29;20040;-71
2022/03/29 01:07:56;;;;;;;19.42;13.25;;;;;;;6.65;77.25;100406.06;4917269;29;20046;-71
2022/03/29 01:10:22;;;;;;;20.48;13.77;;;;;;;6.60;77.11;100405.16;4918697;29;20044;-71
2022/03/29 01:12:48;;;;;;;24.13;15.90;;;;;;;6.55;77.37;100399.88;4918092;29;20084;-71
2022/03/29 01:15:13;;;;;;;19.30;14.80;;;;;;;6.51;76.91;100403.34;4918440;29;20036;-71
2022/03/29 01:17:41;;;;;;;19.48;13.77;;;;;;;6.51;76.71;100394.59;4918342;29;20050;-71
2022/03/29 01:20:13;;;;;;;19.80;13.48;;;;;;;6.47;76.78;100391.09;4918289;29;20133;-71
2022/03/29 01:22:41;;;;;;;18.52;14.20;;;;;;;6.41;77.11;100391.00;4917894;29;20550;-71
2022/03/29 01:25:08;;;;;;;21.35;14.50;;;;;;;6.40;76.95;100391.03;4918024;29;20452;-71
2022/03/29 01:27:35;;;;;;;22.98;15.45;;;;;;;6.33;76.69;100388.31;4918172;29;20040;-71
2022/03/29 01:30:02;;;;;;;21.15;14.07;;;;;;;6.27;76.85;100393.53;4918181;29;20044;-71
2022/03/29 01:32:29;;;;;;;21.42;15.45;;;;;;;6.24;77.61;100393.50;4917691;29;20035;-71
2022/03/29 01:34:54;;;;;;;22.30;15.18;;;;;;;6.19;77.81;100389.97;4914676;29;20104;-71
2022/03/29 01:37:20;;;;;;;24.65;15.05;;;;;;;6.13;77.84;100389.88;4917864;29;20052;-71
2022/03/29 01:39:45;;;;;;;24.25;14.95;;;;;;;6.10;78.19;100392.47;4917969;29;20051;-71
2022/03/29 01:42:10;;;;;;;23.00;16.20;;;;;;;6.04;78.39;100389.81;4917633;29;20048;-71
2022/03/29 01:44:36;;;;;;;19.90;14.30;;;;;;;5.99;78.94;100387.13;4917758;29;20472;-71
2022/03/29 01:47:01;;;;;;;22.27;14.95;;;;;;;5.96;78.94;100392.34;4917779;29;20036;-71
2022/03/29 01:49:27;;;;;;;24.88;16.35;;;;;;;5.89;79.40;100387.88;4917872;29;20031;-71
2022/03/29 01:51:52;;;;;;;24.02;16.17;;;;;;;5.86;79.13;100388.72;4917341;29;20499;-71
2022/03/29 01:54:18;;;;;;;23.25;15.45;;;;;;;5.83;79.25;100393.03;4917189;29;20031;-71
2022/03/29 01:56:43;;;;;;;23.27;16.65;;;;;;;5.83;79.06;100395.66;4916965;29;20052;-71
2022/03/29 01:59:12;;;;;;;20.38;14.73;;;;;;;5.83;79.00;100390.44;4917589;29;20052;-71
2022/03/29 02:01:48;;;;;;;20.92;15.05;;;;;;;5.86;78.99;100385.22;4917361;29;20059;-71
2022/03/29 02:04:15;;;;;;;24.10;14.88;;;;;;;5.86;78.49;100385.22;4914229;29;20048;-71
2022/03/29 02:06:41;;;;;;;25.20;17.02;;;;;;;5.86;78.32;100391.31;4917473;29;20550;-72
2022/03/29 02:09:07;;;;;;;23.20;15.93;;;;;;;5.83;78.00;100382.56;4917417;29;20040;-71
2022/03/29 02:11:35;;;;;;;25.30;17.27;;;;;;;5.79;78.85;100372.91;4917150;29;20036;-71
2022/03/29 02:14:01;;;;;;;25.38;17.60;;;;;;;5.69;78.87;100369.34;4916897;29;20032;-71
2022/03/29 02:16:27;;;;;;;23.48;16.27;;;;;;;5.66;78.73;100370.19;4914118;29;20042;-71
2022/03/29 02:18:53;;;;;;;21.88;15.35;;;;;;;5.60;79.09;100369.22;4917087;29;20488;-71
2022/03/29 02:21:18;;;;;;;26.10;16.52;;;;;;;5.46;80.00;100363.81;4916951;29;20052;-71
2022/03/29 02:23:44;;;;;;;22.67;16.02;;;;;;;5.36;79.68;100367.19;4916540;29;20044;-71
2022/03/29 02:26:10;;;;;;;21.10;14.63;;;;;;;5.31;79.22;100361.88;4917095;29;20043;-71
2022/03/29 02:28:35;;;;;;;23.25;15.88;;;;;;;5.31;79.31;100367.13;4917105;29;20490;-71
2022/03/29 02:31:01;;;;;;;21.77;14.98;;;;;;;5.28;79.27;100360.13;4916845;29;20123;-72
2022/03/29 02:33:26;;;;;;;21.30;15.23;;;;;;;5.25;79.74;100360.09;4916766;29;20095;-71
2022/03/29 02:35:52;;;;;;;24.33;16.30;;;;;;;5.23;79.54;100353.94;4917053;29;20047;-71
2022/03/29 02:38:18;;;;;;;24.05;16.65;;;;;;;5.24;80.02;100352.22;4916774;29;20040;-71
2022/03/29 02:40:44;;;;;;;23.73;17.60;;;;;;;5.23;80.38;100356.56;4916585;29;20501;-71
2022/03/29 02:43:09;;;;;;;24.75;15.32;;;;;;;5.21;79.75;100347.84;4916309;29;20048;-71
2022/03/29 02:45:35;;;;;;;22.50;16.05;;;;;;;5.22;79.78;100348.72;4916671;29;20118;-71
2022/03/29 02:48:00;;;;;;;24.58;17.23;;;;;;;5.19;80.00;100351.28;4915447;29;20048;-71
2022/03/29 02:50:26;;;;;;;26.77;18.65;;;;;;;5.17;80.05;100353.00;4916679;29;20035;-71
2022/03/29 02:52:59;;;;;;;26.80;17.00;;;;;;;5.14;80.10;100348.63;4916239;29;20115;-71
2022/03/29 02:55:30;;;;;;;29.60;20.33;;;;;;;5.13;80.16;100353.81;4916434;29;20078;-71
2022/03/29 02:57:56;;;;;;;28.60;18.23;;;;;;;5.12;80.57;100342.47;4916427;29;20695;-71
2022/03/29 03:00:22;;;;;;;30.80;19.55;;;;;;;5.15;80.51;100349.47;4916371;29;20047;-71
2022/03/29 03:02:50;;;;;;;30.55;19.00;;;;;;;5.17;80.71;100355.63;4912288;29;20044;-71
2022/03/29 03:05:16;;;;;;;30.63;21.40;;;;;;;5.20;80.59;100356.53;4916224;29;20499;-71
2022/03/29 03:07:43;;;;;;;28.05;19.20;;;;;;;5.29;80.19;100350.53;4915641;29;20563;-71
2022/03/29 03:10:09;;;;;;;28.60;19.40;;;;;;;5.35;79.85;100354.97;4912539;29;20040;-71
2022/03/29 03:12:36;;;;;;;28.80;18.90;;;;;;;5.41;79.48;100355.03;4915797;29;20043;-71
2022/03/29 03:15:03;;;;;;;29.00;20.30;;;;;;;5.44;79.69;100348.09;4916062;29;20040;-70
2022/03/29 03:17:28;;;;;;;24.77;18.17;;;;;;;5.45;79.49;100351.63;4915883;29;20091;-71
2022/03/29 03:19:54;;;;;;;25.50;18.10;;;;;;;5.37;79.84;100353.22;4916124;29;20123;-71
2022/03/29 03:22:19;;;;;;;30.25;20.05;;;;;;;5.30;80.09;100349.69;4915328;29;20055;-71
2022/03/29 03:24:44;;;;;;;29.02;19.65;;;;;;;5.32;80.00;100347.06;4908960;29;20047;-71
2022/03/29 03:27:10;;;;;;;31.05;20.52;;;;;;;5.35;79.96;100352.34;4907414;29;20041;-71
2022/03/29 03:29:35;;;;;;;29.17;20.58;;;;;;;5.42;80.15;100351.56;4915692;29;20048;-71
2022/03/29 03:32:00;;;;;;;28.75;19.35;;;;;;;5.54;79.87;100351.69;4915225;29;20039;-71
2022/03/29 03:34:26;;;;;;;31.38;21.42;;;;;;;5.64;79.59;100350.94;4915885;29;20036;-71
2022/03/29 03:36:51;;;;;;;26.20;18.27;;;;;;;5.76;79.11;100342.31;4915836;29;20058;-71
2022/03/29 03:39:17;;;;;;;28.48;20.33;;;;;;;5.79;78.90;100342.38;4915712;29;20518;-71
2022/03/29 03:41:43;;;;;;;34.30;22.60;;;;;;;5.83;78.76;100343.28;4915293;29;20047;-71
2022/03/29 03:44:11;;;;;;;31.75;20.85;;;;;;;5.91;78.47;100337.25;4915469;29;20451;-71
2022/03/29 03:46:36;;;;;;;30.70;20.83;;;;;;;6.01;78.49;100337.38;4915547;29;20119;-71
2022/03/29 03:49:02;;;;;;;28.67;20.80;;;;;;;6.08;78.02;100341.81;4915956;29;20039;-71
2022/03/29 03:51:27;;;;;;;27.80;18.77;;;;;;;6.17;77.77;100341.03;4917288;29;20040;-72
2022/03/29 03:53:52;;;;;;;26.77;19.02;;;;;;;6.28;77.45;100342.84;4914976;29;20044;-71
2022/03/29 03:56:18;;;;;;;28.50;20.02;;;;;;;6.33;76.99;100335.03;4915526;29;20136;-72
2022/03/29 03:58:43;;;;;;;27.90;19.50;;;;;;;6.39;77.17;100335.06;4915653;29;20043;-71
2022/03/29 04:01:11;;;;;;;25.98;19.48;;;;;;;6.44;76.86;100341.22;4914645;29;20043;-71
2022/03/29 04:03:37;;;;;;;28.73;19.63;;;;;;;6.46;76.68;100347.38;4911962;29;20036;-72
2022/03/29 04:06:02;;;;;;;28.40;20.33;;;;;;;6.45;76.80;100339.50;4913657;29;20032;-71
2022/03/29 04:08:27;;;;;;;24.75;17.65;;;;;;;6.50;76.94;100337.81;4913043;29;20566;-71
2022/03/29 04:10:53;;;;;;;27.33;18.73;;;;;;;6.54;76.96;100334.31;4915188;29;20427;-72
2022/03/29 04:13:19;;;;;;;26.83;20.67;;;;;;;6.60;76.48;100323.84;4914553;29;20392;-71
2022/03/29 04:15:45;;;;;;;26.35;18.58;;;;;;;6.53;76.50;100322.09;4914982;29;20123;-72
2022/03/29 04:18:10;;;;;;;25.33;18.38;;;;;;;6.52;77.14;100321.22;4914002;29;20199;-72
2022/03/29 04:20:36;;;;;;;30.55;19.55;;;;;;;6.48;77.29;100321.16;4914493;29;20048;-72
2022/03/29 04:23:01;;;;;;;26.48;18.23;;;;;;;6.56;77.27;100315.09;4914699;29;20039;-72
2022/03/29 04:25:26;;;;;;;27.60;19.77;;;;;;;6.67;76.68;100309.94;4914862;29;20098;-73
2022/03/29 04:27:52;;;;;;;28.38;18.60;;;;;;;6.69;76.56;100316.06;4914904;29;20118;-72
2022/03/29 04:30:17;;;;;;;26.80;18.23;;;;;;;6.65;76.69;100309.03;4913769;29;20470;-72
2022/03/29 04:32:42;;;;;;;31.77;21.50;;;;;;;6.66;77.23;100307.31;4914149;29;20387;-72
2022/03/29 04:35:08;;;;;;;45.88;26.85;;;;;;;6.67;78.09;100303.81;4913246;29;20415;-72
2022/03/29 04:37:33;;;;;;;30.02;19.77;;;;;;;6.78;76.69;100305.59;4914636;29;20487;-72
2022/03/29 04:39:58;;;;;;;29.95;19.23;;;;;;;6.79;77.01;100298.66;4913128;29;20140;-72
2022/03/29 04:42:24;;;;;;;32.53;22.08;;;;;;;6.78;77.27;100302.13;4911430;29;20036;-72
2022/03/29 04:44:49;;;;;;;54.30;30.48;;;;;;;6.79;78.13;100301.28;4913579;29;20032;-72
2022/03/29 04:47:14;;;;;;;29.23;19.40;;;;;;;6.87;77.42;100289.06;4912679;29;20051;-72
2022/03/29 04:49:40;;;;;;;26.05;19.60;;;;;;;6.93;76.16;100299.56;4914581;29;20040;-72
2022/03/29 04:52:06;;;;;;;47.47;25.83;;;;;;;6.81;77.61;100302.13;4914542;29;20039;-72
2022/03/29 04:54:31;;;;;;;35.88;23.05;;;;;;;6.94;77.90;100298.72;4914798;29;20043;-72
2022/03/29 04:56:57;;;;;;;26.30;17.38;;;;;;;6.95;76.55;100308.34;4914281;29;20032;-71
2022/03/29 04:59:22;;;;;;;23.52;17.80;;;;;;;6.96;76.55;100304.84;4913837;29;20043;-72
2022/03/29 05:01:47;;;;;;;24.75;17.52;;;;;;;6.78;76.72;100302.13;4905757;29;20047;-72
2022/03/29 05:04:13;;;;;;;25.92;18.05;;;;;;;6.77;76.69;100305.63;4909815;29;20028;-71
2022/03/29 05:06:38;;;;;;;27.30;18.50;;;;;;;6.78;76.88;100304.75;4914627;29;20043;-72
2022/03/29 05:09:04;;;;;;;25.75;18.10;;;;;;;6.67;77.53;100307.31;4914686;29;20032;-72
2022/03/29 05:11:29;;;;;;;32.08;21.48;;;;;;;6.68;78.08;100305.56;4913074;29;20491;-72
2022/03/29 05:13:55;;;;;;;23.58;16.98;;;;;;;6.70;77.16;100309.06;4914163;29;20443;-72
2022/03/29 05:16:20;;;;;;;26.10;19.02;;;;;;;6.72;77.84;100307.34;4914696;29;20175;-72
2022/03/29 05:18:46;;;;;;;27.30;20.00;;;;;;;6.77;77.87;100308.25;4914380;29;20526;-72
2022/03/29 05:21:12;;;;;;;27.00;19.17;;;;;;;6.75;77.71;100304.72;4914009;29;20126;-72
2022/03/29 05:23:37;;;;;;;27.42;19.88;;;;;;;6.69;77.98;100305.56;4913641;29;20132;-72
2022/03/29 05:26:02;;;;;;;25.50;19.55;;;;;;;6.77;77.45;100308.25;4914256;29;20040;-72
2022/03/29 05:28:28;;;;;;;25.42;18.65;;;;;;;6.69;77.92;100302.06;4914495;29;20048;-71
2022/03/29 05:30:53;;;;;;;28.15;20.20;;;;;;;6.62;78.06;100308.16;4917399;29;20051;-71
2022/03/29 05:33:18;;;;;;;28.23;19.90;;;;;;;6.44;78.72;100307.16;4917243;29;20047;-72
2022/03/29 05:35:44;;;;;;;27.05;19.23;;;;;;;6.40;79.26;100315.88;4917908;29;20048;-72
2022/03/29 05:38:10;;;;;;;28.77;19.60;;;;;;;6.47;78.64;100317.69;4918027;29;20047;-72
2022/03/29 05:40:35;;;;;;;32.00;20.60;;;;;;;6.41;78.60;100317.63;4917610;29;20051;-72
2022/03/29 05:43:00;;;;;;;26.90;19.33;;;;;;;6.37;78.79;100321.09;4917569;29;20088;-71
2022/03/29 05:45:26;;;;;;;29.63;19.35;;;;;;;6.40;79.01;100315.88;4917768;29;20483;-71
2022/03/29 05:50:35;;;;;;;29.27;19.75;;;;;;;6.45;78.34;100331.66;4915002;29;20507;-72
2022/03/29 05:53:02;;;;;;;25.40;19.02;;;;;;;6.53;77.96;100328.19;4916938;29;20031;-72
2022/03/29 05:55:28;;;;;;;30.48;19.52;;;;;;;6.56;77.80;100328.22;4917436;29;20043;-72
2022/03/29 05:57:54;;;;;;;29.23;19.77;;;;;;;6.45;78.04;100336.88;4916594;29;20115;-71
2022/03/29 06:00:23;;;;;;;28.52;18.95;;;;;;;6.32;78.01;100336.78;4917523;29;20115;-71
2022/03/29 06:02:50;;;;;;;33.47;19.85;;;;;;;6.29;78.62;100342.00;4916718;29;20036;-72
2022/03/29 06:05:16;;;;;;;27.48;18.88;;;;;;;6.21;78.71;100335.81;4917180;29;20100;-71
2022/03/29 06:07:41;;;;;;;27.35;18.80;;;;;;;6.23;78.42;100346.31;4917317;29;20126;-72
2022/03/29 06:10:07;;;;;;;27.48;19.77;;;;;;;6.18;78.71;100350.63;4917334;29;20540;-71
2022/03/29 06:12:34;;;;;;;26.75;18.50;;;;;;;6.23;78.52;100349.78;4917298;29;20040;-72
2022/03/29 06:15:04;;;;;;;24.48;17.02;;;;;;;6.25;78.38;100344.56;4917904;29;20387;-72
2022/03/29 06:17:29;;;;;;;26.38;18.42;;;;;;;6.20;77.82;100349.78;4921120;29;20040;-71
2022/03/29 06:19:55;;;;;;;23.73;15.95;;;;;;;6.12;77.60;100354.94;4917233;29;20055;-71
2022/03/29 06:22:20;;;;;;;25.60;16.35;;;;;;;6.11;78.12;100355.81;4916894;29;20036;-71
2022/03/29 06:24:46;;;;;;;23.88;15.95;;;;;;;6.09;77.94;100352.31;4917002;29;20491;-71
2022/03/29 06:27:11;;;;;;;26.40;17.52;;;;;;;6.15;78.04;100352.34;4917236;29;20566;-72
2022/03/29 06:29:36;;;;;;;24.30;17.05;;;;;;;6.24;77.19;100363.81;4924264;29;20130;-72
2022/03/29 06:32:02;;;;;;;27.17;18.20;;;;;;;6.24;77.69;100363.81;4915775;29;20076;-72
2022/03/29 06:34:29;;;;;;;27.70;18.08;;;;;;;6.30;77.32;100358.59;4916653;29;20119;-71
2022/03/29 06:36:54;;;;;;;30.35;18.15;;;;;;;6.26;77.46;100348.94;4920504;29;20048;-72
2022/03/29 06:39:19;;;;;;;28.48;18.45;;;;;;;6.30;77.82;100348.13;4918245;29;20669;-71
2022/03/29 06:41:45;;;;;;;26.23;18.35;;;;;;;6.33;77.94;100342.91;4915715;29;20051;-72
2022/03/29 06:44:13;;;;;;;25.20;15.88;;;;;;;6.48;76.81;100350.00;4914016;29;20032;-71
2022/03/29 06:46:42;;;;;;;30.98;19.80;;;;;;;6.48;76.67;100352.63;4909239;29;20559;-72
2022/03/29 06:49:07;;;;;;;25.83;17.02;;;;;;;6.47;77.07;100359.63;4913842;29;20122;-72
2022/03/29 06:51:33;;;;;;;29.85;16.88;;;;;;;6.49;76.60;100350.00;4914309;29;20456;-72
2022/03/29 06:54:00;;;;;;;25.55;17.02;;;;;;;6.47;76.76;100358.72;4915077;29;20036;-71
2022/03/29 06:56:26;;;;;;;28.20;17.83;;;;;;;6.35;77.14;100352.53;4912765;29;20104;-72
2022/03/29 06:58:51;;;;;;;27.38;18.67;;;;;;;6.36;76.94;100361.25;4916308;29;20072;-71
2022/03/29 07:01:17;;;;;;;24.35;17.00;;;;;;;6.28;77.09;100349.84;4916227;29;20084;-72
2022/03/29 07:03:42;;;;;;;31.25;18.45;;;;;;;6.22;77.42;100353.28;4916267;29;20126;-71
2022/03/29 07:06:08;;;;;;;27.55;18.40;;;;;;;6.30;77.56;100348.13;4916408;29;20044;-71
2022/03/29 07:08:33;;;;;;;26.23;17.40;;;;;;;6.41;77.22;100343.81;4916126;29;20047;-71
2022/03/29 07:11:21;;;;;;;26.30;18.20;;;;;;;6.41;77.33;100356.94;4916025;29;20039;-72
2022/03/29 07:13:46;;;;;;;26.58;18.25;;;;;;;6.40;77.89;100343.84;4913864;29;20183;-72
2022/03/29 07:16:14;;;;;;;29.75;19.08;;;;;;;6.45;76.66;100340.38;4916240;29;20111;-72
2022/03/29 07:18:40;;;;;;;27.63;17.63;;;;;;;6.47;76.98;100341.28;4913917;29;20043;-71
2022/03/29 07:21:05;;;;;;;24.88;17.38;;;;;;;6.43;76.64;100339.47;4915570;29;20040;-71
2022/03/29 07:23:31;;;;;;;27.10;18.23;;;;;;;6.53;76.66;100333.44;4916086;29;20384;-72
2022/03/29 07:25:56;;;;;;;28.42;18.88;;;;;;;6.68;76.08;100334.41;4915962;29;20411;-71
2022/03/29 07:28:23;;;;;;;28.02;18.60;;;;;;;6.64;75.93;100328.28;4915882;29;20043;-71
2022/03/29 07:30:49;;;;;;;27.55;18.10;;;;;;;6.65;74.95;100337.00;4912266;29;20076;-72
2022/03/29 07:33:17;;;;;;;25.30;16.92;;;;;;;6.68;76.01;100329.16;4913343;29;20036;-72
2022/03/29 07:35:42;;;;;;;24.42;17.42;;;;;;;6.82;75.02;100339.75;4913525;29;20032;-72
2022/03/29 07:38:09;;;;;;;28.00;16.50;;;;;;;6.92;74.45;100326.69;4915744;29;20047;-71
2022/03/29 07:40:37;;;;;;;24.05;16.80;;;;;;;6.92;74.40;100333.69;4915706;29;20044;-71
2022/03/29 07:43:04;;;;;;;26.83;17.17;;;;;;;6.83;74.19;100331.88;4915324;29;20046;-71
2022/03/29 07:45:30;;;;;;;26.08;17.88;;;;;;;6.92;73.71;100333.69;4915517;29;20127;-71
2022/03/29 07:47:56;;;;;;;24.80;17.25;;;;;;;7.01;74.05;100324.09;4914762;29;20532;-72
2022/03/29 07:50:24;;;;;;;23.70;17.25;;;;;;;7.17;73.92;100332.06;4908862;29;20047;-72
2022/03/29 07:52:50;;;;;;;26.38;18.38;;;;;;;7.31;73.39;100327.75;4913223;29;20046;-71
2022/03/29 07:55:16;;;;;;;29.40;19.35;;;;;;;7.52;73.36;100324.31;4912938;29;20035;-72
2022/03/29 07:57:42;;;;;;;26.85;17.52;;;;;;;7.54;71.45;100332.19;4914447;29;20044;-71
2022/03/29 08:02:55;;;;;;;24.60;17.05;;;;;;;7.47;72.57;100320.81;4913271;29;20513;-72
2022/03/29 08:05:21;;;;;;;23.67;17.25;;;;;;;7.45;72.30;100323.41;4915154;29;20036;-71
2022/03/29 08:07:47;;;;;;;25.10;17.35;;;;;;;7.48;71.60;100319.91;4915594;29;20495;-71
2022/03/29 08:10:12;;;;;;;25.40;16.80;;;;;;;7.50;70.85;100315.56;4915317;29;20044;-72
2022/03/29 08:12:39;;;;;;;29.65;18.45;;;;;;;7.55;71.38;100311.19;4914930;29;20044;-72
2022/03/29 08:15:06;;;;;;;28.35;18.80;;;;;;;7.75;71.51;100308.59;4913345;29;20028;-71
2022/03/29 08:17:32;;;;;;;27.13;18.38;;;;;;;7.79;70.20;100312.13;4914946;29;20044;-72
2022/03/29 08:19:57;;;;;;;32.20;20.77;;;;;;;7.89;70.65;100308.63;4917458;29;20095;-71
2022/03/29 08:22:23;;;;;;;29.50;19.70;;;;;;;8.22;69.44;100301.63;4914845;29;20040;-71
2022/03/29 08:24:48;;;;;;;28.25;16.90;;;;;;;8.39;67.63;100305.16;4915050;29;20455;-71
2022/03/29 08:27:14;;;;;;;30.10;20.15;;;;;;;8.54;66.94;100292.00;4915121;29;20040;-72
2022/03/29 08:29:39;;;;;;;34.65;23.10;;;;;;;8.51;66.42;100293.75;4914832;29;20043;-71
2022/03/29 08:32:05;;;;;;;21.67;16.40;;;;;;;8.65;65.76;100291.97;4914373;29;20040;-72
2022/03/29 08:34:31;;;;;;;23.08;16.27;;;;;;;8.34;65.72;100292.00;4913658;29;20032;-72
2022/03/29 08:36:56;;;;;;;25.38;17.50;;;;;;;8.17;66.34;100299.00;4912624;29;20044;-72
2022/03/29 08:39:22;;;;;;;24.33;16.52;;;;;;;8.19;67.55;100297.25;4913674;29;20040;-71
2022/03/29 08:41:58;;;;;;;23.60;16.75;;;;;;;8.28;67.21;100297.25;4913500;29;20092;-70
2022/03/29 08:44:26;;;;;;;30.77;18.35;;;;;;;8.21;67.45;100298.13;4914858;29;20080;-71
2022/03/29 08:46:52;;;;;;;26.75;17.52;;;;;;;8.12;66.81;100300.75;4914912;29;20043;-71
2022/03/29 08:49:19;;;;;;;27.38;17.70;;;;;;;7.93;67.65;100307.75;4912578;29;20056;-71
2022/03/29 08:51:44;;;;;;;26.65;17.48;;;;;;;7.98;67.54;100297.25;4914450;29;20077;-71
2022/03/29 08:54:10;;;;;;;26.02;18.00;;;;;;;7.94;67.48;100296.38;4913521;29;20040;-70
2022/03/29 08:56:35;;;;;;;25.63;16.48;;;;;;;7.97;67.50;100295.50;4914362;29;20054;-71
2022/03/29 08:59:00;;;;;;;27.05;18.00;;;;;;;7.98;67.87;100298.13;4914571;29;20135;-71
2022/03/29 09:01:27;;;;;;;26.02;18.65;;;;;;;7.90;67.83;100295.47;4914434;29;20036;-71
2022/03/29 09:04:03;;;;;;;32.45;16.85;;;;;;;7.97;67.62;100296.38;4914558;29;20083;-71
2022/03/29 09:06:29;;;;;;;25.90;18.30;;;;;;;7.95;67.92;100292.88;4918451;29;20036;-71
2022/03/29 09:08:54;;;;;;;25.35;17.67;;;;;;;8.09;67.87;100295.50;4918413;29;20034;-70
2022/03/29 09:11:20;;;;;;;26.58;18.00;;;;;;;8.18;67.30;100292.88;4918155;29;20044;-70
2022/03/29 09:13:46;;;;;;;26.08;17.52;;;;;;;8.26;67.10;100283.22;4918280;29;20095;-70
2022/03/29 09:16:33;;;;;;;29.65;18.25;;;;;;;8.43;66.07;100275.34;4918295;29;20048;-71
2022/03/29 09:18:59;;;;;;;27.00;17.98;;;;;;;8.37;66.74;100283.22;4916551;29;20032;-70
2022/03/29 09:21:25;;;;;;;26.13;18.35;;;;;;;8.46;66.42;100270.09;4914630;29;20050;-70
2022/03/29 09:24:17;;;;;;;27.15;19.48;;;;;;;8.57;66.96;100272.72;4917952;29;20127;-70
2022/03/29 09:26:51;;;;;;;31.58;17.30;;;;;;;8.59;65.99;100270.94;4916398;29;20084;-70
2022/03/29 09:29:22;;;;;;;24.88;16.60;;;;;;;8.48;66.73;100264.81;4926840;29;20048;-70
2022/03/29 09:32:09;;;;;;;27.70;17.77;;;;;;;8.49;66.53;100263.97;4917706;29;20044;-70
2022/03/29 09:34:35;;;;;;;29.20;18.60;;;;;;;8.48;66.77;100262.19;4913167;29;20039;-71
2022/03/29 09:37:02;;;;;;;33.55;22.52;;;;;;;8.48;66.55;100267.47;4917784;29;20028;-70
2022/03/29 09:39:40;;;;;;;25.30;17.65;;;;;;;8.49;66.07;100271.84;4917182;29;20036;-71
2022/03/29 09:42:14;;;;;;;26.85;18.88;;;;;;;8.63;65.97;100262.16;4916238;29;20036;-70
2022/03/29 09:44:45;;;;;;;24.42;17.48;;;;;;;8.74;65.77;100265.63;4915226;29;20032;-71
2022/03/29 09:47:13;;;;;;;30.63;20.70;;;;;;;8.76;65.49;100256.00;4917734;29;20086;-71
2022/03/29 09:49:57;;;;;;;36.72;23.05;;;;;;;8.93;65.87;100255.94;4914589;29;20036;-70
2022/03/29 09:52:28;;;;;;;28.65;18.20;;;;;;;8.88;65.24;100246.28;4917326;29;20036;-70
2022/03/29 09:55:06;;;;;;;29.02;18.20;;;;;;;8.98;65.35;100245.38;4914790;29;20039;-71
2022/03/29 09:57:43;;;;;;;24.60;17.02;;;;;;;8.93;64.39;100249.78;4917537;29;20095;-71
2022/03/29 10:00:10;;;;;;;25.40;16.83;;;;;;;8.91;63.61;100233.16;4916952;29;20043;-71
2022/03/29 10:02:47;;;;;;;25.02;17.52;;;;;;;8.91;64.32;100235.78;4922334;29;20048;-70
2022/03/29 10:05:16;;;;;;;23.58;17.30;;;;;;;9.10;62.90;100245.31;4916115;29;20119;-69
2022/03/29 10:07:45;;;;;;;25.92;18.15;;;;;;;9.04;63.03;100245.38;4919077;29;20035;-70
2022/03/29 10:10:11;;;;;;;25.17;17.05;;;;;;;9.08;63.19;100243.59;4919256;29;20040;-70
2022/03/29 10:12:37;;;;;;;24.17;17.02;;;;;;;9.26;62.13;100247.88;4915073;29;20035;-70
2022/03/29 10:15:03;;;;;;;25.38;17.13;;;;;;;9.25;61.90;100240.84;4916484;29;20036;-70
2022/03/29 10:17:30;;;;;;;27.15;17.75;;;;;;;9.24;62.18;100233.84;4916171;29;20039;-70
2022/03/29 10:19:57;;;;;;;29.55;18.63;;;;;;;9.40;61.67;100236.38;4913960;29;20087;-69
2022/03/29 10:22:23;;;;;;;24.17;17.15;;;;;;;9.54;60.64;100233.66;4916634;29;20044;-69
2022/03/29 10:24:48;;;;;;;24.75;17.67;;;;;;;9.70;61.19;100228.28;4915834;29;20043;-70
2022/03/29 10:27:16;;;;;;;25.77;18.05;;;;;;;9.81;60.46;100223.81;4915527;29;20047;-71
2022/03/29 10:29:42;;;;;;;25.63;16.60;;;;;;;10.17;60.22;100224.38;4913075;29;20040;-70
2022/03/29 10:32:07;;;;;;;24.23;17.70;;;;;;;10.24;58.78;100226.06;4913589;29;20048;-70
2022/03/29 10:34:59;;;;;;;24.27;18.98;;;;;;;10.23;58.21;100219.03;4913798;29;20044;-69
2022/03/29 10:37:27;;;;;;;24.77;18.27;;;;;;;10.21;58.05;100216.41;4911121;29;20123;-69
2022/03/29 10:39:57;;;;;;;23.45;17.48;;;;;;;10.35;58.53;100212.78;4911209;29;20592;-70
2022/03/29 10:42:40;;;;;;;24.17;17.85;;;;;;;10.42;57.85;100212.72;4912885;29;20036;-70
2022/03/29 10:45:12;;;;;;;30.10;17.17;;;;;;;10.35;57.01;100213.69;4916038;29;20103;-70
2022/03/29 10:47:38;;;;;;;23.58;17.58;;;;;;;10.14;58.07;100219.13;4916173;29;20458;-70
2022/03/29 10:50:06;;;;;;;26.25;17.70;;;;;;;10.42;58.13;100198.66;4914749;29;20123;-69
2022/03/29 10:52:43;;;;;;;26.30;16.48;;;;;;;10.61;56.69;100199.31;4912441;29;20510;-69
2022/03/29 10:55:18;;;;;;;24.48;18.00;;;;;;;10.46;57.87;100190.69;4916547;29;20047;-70
2022/03/29 10:58:05;;;;;;;24.83;17.30;;;;;;;10.60;57.48;100187.91;4916603;29;20094;-70
2022/03/29 11:00:33;;;;;;;26.13;18.08;;;;;;;10.55;57.53;100189.72;4913461;29;20040;-70
2022/03/29 11:03:20;;;;;;;25.45;17.25;;;;;;;10.76;56.47;100188.56;4915031;29;20036;-70
2022/03/29 11:06:08;;;;;;;22.85;16.70;;;;;;;10.85;56.05;100193.75;4915347;29;20096;-70
2022/03/29 11:08:36;;;;;;;22.15;16.42;;;;;;;10.93;56.10;100185.75;4914765;29;20044;-70
2022/03/29 11:11:02;;;;;;;23.35;16.23;;;;;;;11.00;55.61;100178.59;4913952;29;20079;-69
2022/03/29 11:13:39;;;;;;;24.85;17.15;;;;;;;11.03;55.77;100178.53;4915999;29;20039;-70
2022/03/29 11:16:28;;;;;;;24.02;15.93;;;;;;;11.18;53.17;100175.69;4915794;29;20044;-70
2022/03/29 11:18:53;;;;;;;22.48;15.70;;;;;;;11.26;53.78;100178.22;4915475;29;20032;-69
2022/03/29 11:21:33;;;;;;;22.20;16.33;;;;;;;11.11;54.33;100172.28;4913818;29;20035;-70
2022/03/29 11:24:00;;;;;;;23.23;16.10;;;;;;;10.84;54.94;100175.28;4915377;29;20452;-70